createdAt,value
2018-12-29T00:01:36.426Z,3.80
2018-12-29T00:04:06.037Z,3.90
2018-12-29T00:06:35.642Z,3.90
2018-12-29T00:09:06.843Z,3.80
2018-12-29T00:11:36.494Z,3.70
2018-12-29T00:14:06.184Z,3.80
2018-12-29T00:16:35.911Z,3.80
2018-12-29T00:19:05.585Z,3.80
2018-12-29T00:21:35.346Z,3.80
2018-12-29T00:24:04.833Z,3.70
2018-12-29T00:26:34.538Z,3.80
2018-12-29T00:29:04.270Z,3.80
2018-12-29T00:31:33.749Z,3.80
2018-12-29T00:34:03.251Z,3.80
2018-12-29T00:36:32.644Z,3.60
2018-12-29T00:39:02.224Z,3.60
2018-12-29T00:41:31.985Z,3.70
2018-12-29T00:44:01.676Z,3.80
2018-12-29T00:46:31.263Z,3.80
2018-12-29T00:49:00.725Z,3.80
2018-12-29T00:51:30.391Z,3.80
2018-12-29T00:53:59.880Z,3.70
2018-12-29T00:56:29.511Z,3.80
2018-12-29T00:58:59.977Z,4.00
2018-12-29T01:01:30.688Z,4.00
2018-12-29T01:04:01.622Z,3.70
2018-12-29T01:06:32.582Z,3.80
2018-12-29T01:09:02.812Z,3.90
2018-12-29T01:11:32.461Z,3.70
2018-12-29T01:14:01.960Z,3.70
2018-12-29T01:16:32.100Z,3.70
2018-12-29T01:19:01.684Z,3.80
2018-12-29T01:21:31.188Z,3.90
2018-12-29T01:24:00.904Z,3.90
2018-12-29T01:26:31.141Z,3.80
2018-12-29T01:29:00.724Z,3.80
2018-12-29T01:31:30.300Z,3.80
2018-12-29T01:34:00.037Z,3.80
2018-12-29T01:36:29.641Z,3.80
2018-12-29T01:38:59.459Z,3.90
2018-12-29T01:41:28.979Z,3.80
2018-12-29T01:43:58.771Z,3.90
2018-12-29T01:46:28.618Z,4.00
2018-12-29T01:48:58.270Z,3.90
2018-12-29T01:51:27.780Z,3.80
2018-12-29T01:53:57.661Z,3.90
2018-12-29T01:56:27.537Z,3.80
2018-12-29T01:58:57.304Z,3.90
2018-12-29T02:01:27.178Z,4.00
2018-12-29T02:04:03.061Z,4.00
2018-12-29T02:06:32.938Z,4.10
2018-12-29T02:09:02.937Z,4.10
2018-12-29T02:11:32.576Z,4.00
2018-12-29T02:14:03.177Z,4.00
2018-12-29T02:16:33.896Z,4.30
2018-12-29T02:19:04.618Z,4.30
2018-12-29T02:21:34.257Z,4.30
2018-12-29T02:24:04.621Z,4.20
2018-12-29T02:26:34.255Z,4.10
2018-12-29T02:29:03.855Z,4.10
2018-12-29T02:31:33.352Z,4.10
2018-12-29T02:34:02.815Z,4.10
2018-12-29T02:36:32.576Z,4.10
2018-12-29T02:39:02.084Z,4.10
2018-12-29T02:41:31.792Z,4.00
2018-12-29T02:44:01.494Z,4.00
2018-12-29T02:46:31.094Z,4.00
2018-12-29T02:49:00.705Z,3.90
2018-12-29T02:51:31.436Z,3.90
2018-12-29T02:54:01.191Z,3.80
2018-12-29T02:56:30.892Z,3.90
2018-12-29T02:59:00.778Z,3.90
2018-12-29T03:01:30.372Z,4.00
2018-12-29T03:04:00.082Z,4.10
2018-12-29T03:06:29.682Z,4.10
2018-12-29T03:08:59.337Z,4.10
2018-12-29T03:11:28.892Z,4.10
2018-12-29T03:13:58.600Z,4.10
2018-12-29T03:16:28.386Z,4.10
2018-12-29T03:18:57.957Z,4.00
2018-12-29T03:21:27.520Z,4.00
2018-12-29T03:23:57.127Z,4.10
2018-12-29T03:26:26.691Z,4.20
2018-12-29T03:28:56.577Z,4.10
2018-12-29T03:31:26.157Z,3.90
2018-12-29T03:33:55.731Z,3.90
2018-12-29T03:36:25.371Z,4.00
2018-12-29T03:38:55.068Z,4.00
2018-12-29T03:41:24.673Z,3.90
2018-12-29T03:43:54.110Z,3.90
2018-12-29T03:46:23.493Z,3.80
2018-12-29T03:48:53.090Z,3.70
2018-12-29T03:51:22.429Z,3.90
2018-12-29T03:53:51.986Z,3.80
2018-12-29T03:56:21.347Z,3.90
2018-12-29T03:58:51.055Z,3.90
2018-12-29T04:01:20.692Z,4.00
2018-12-29T04:03:50.203Z,4.00
2018-12-29T04:06:20.089Z,3.80
2018-12-29T04:09:13.367Z,3.90
2018-12-29T04:11:43.011Z,3.90
2018-12-29T04:14:12.591Z,4.10
2018-12-29T04:16:42.052Z,4.00
2018-12-29T04:19:11.566Z,3.90
2018-12-29T04:21:41.203Z,3.90
2018-12-29T04:24:10.807Z,3.80
2018-12-29T04:26:40.310Z,3.90
2018-12-29T04:29:09.916Z,3.90
2018-12-29T04:31:39.343Z,3.80
2018-12-29T04:34:08.922Z,3.70
2018-12-29T04:36:38.532Z,3.80
2018-12-29T04:39:08.206Z,3.80
2018-12-29T04:41:37.645Z,3.80
2018-12-29T04:44:07.131Z,3.80
2018-12-29T04:46:36.750Z,3.80
2018-12-29T04:49:06.355Z,4.00
2018-12-29T04:51:36.286Z,4.00
2018-12-29T04:54:06.045Z,4.00
2018-12-29T04:56:35.743Z,3.90
2018-12-29T04:59:05.391Z,4.00
2018-12-29T05:01:34.963Z,3.90
2018-12-29T05:04:04.605Z,4.00
2018-12-29T05:06:34.312Z,3.90
2018-12-29T05:09:04.844Z,3.80
2018-12-29T05:11:34.453Z,3.80
2018-12-29T05:14:04.244Z,3.90
2018-12-29T05:16:33.868Z,4.00
2018-12-29T05:19:04.005Z,4.00
2018-12-29T05:21:33.700Z,3.90
2018-12-29T05:24:03.701Z,4.00
2018-12-29T05:26:33.512Z,4.10
2018-12-29T05:29:03.120Z,4.10
2018-12-29T05:31:32.522Z,4.10
2018-12-29T05:34:02.024Z,4.10
2018-12-29T05:36:32.084Z,4.10
2018-12-29T05:39:01.439Z,4.30
2018-12-29T05:41:31.145Z,4.40
2018-12-29T05:44:00.556Z,4.40
2018-12-29T05:46:30.152Z,4.40
2018-12-29T05:48:59.655Z,4.30
2018-12-29T05:51:29.260Z,4.20
2018-12-29T05:53:59.081Z,4.40
2018-12-29T05:56:28.678Z,4.30
2018-12-29T05:58:58.365Z,4.30
2018-12-29T06:01:28.120Z,4.40
2018-12-29T06:03:57.801Z,4.30
2018-12-29T06:06:27.341Z,4.30
2018-12-29T06:08:58.548Z,4.30
2018-12-29T06:11:28.052Z,4.30
2018-12-29T06:13:57.763Z,4.40
2018-12-29T06:16:27.809Z,4.50
2018-12-29T06:18:57.575Z,4.40
2018-12-29T06:21:27.278Z,4.40
2018-12-29T06:26:26.198Z,4.40
2018-12-29T06:28:55.909Z,4.40
2018-12-29T06:31:25.546Z,4.50
2018-12-29T06:33:55.324Z,4.40
2018-12-29T06:36:25.116Z,4.50
2018-12-29T06:38:54.640Z,4.40
2018-12-29T06:41:24.581Z,4.40
2018-12-29T06:43:54.687Z,4.40
2018-12-29T06:46:24.487Z,4.50
2018-12-29T06:48:54.494Z,4.50
2018-12-29T06:53:53.210Z,4.40
2018-12-29T06:56:22.974Z,4.40
2018-12-29T06:58:52.867Z,4.50
2018-12-29T07:01:22.837Z,4.50
2018-12-29T07:03:53.138Z,4.50
2018-12-29T07:08:52.363Z,4.40
2018-12-29T07:13:51.407Z,4.40
2018-12-29T07:16:21.402Z,4.60
2018-12-29T07:18:51.672Z,4.60
2018-12-29T07:21:21.455Z,4.60
2018-12-29T07:23:51.335Z,4.60
2018-12-29T07:26:21.156Z,4.60
2018-12-29T07:29:04.139Z,4.70
2018-12-29T07:31:34.355Z,4.60
2018-12-29T07:34:04.478Z,4.50
2018-12-29T07:36:34.496Z,4.60
2018-12-29T07:39:05.685Z,4.60
2018-12-29T07:41:35.922Z,4.60
2018-12-29T07:44:05.673Z,4.60
2018-12-29T07:46:35.557Z,4.60
2018-12-29T07:49:05.603Z,4.70
2018-12-29T07:51:35.319Z,4.70
2018-12-29T07:54:05.030Z,4.70
2018-12-29T07:56:35.046Z,4.70
2018-12-29T07:59:04.717Z,4.70
2018-12-29T08:01:34.775Z,4.60
2018-12-29T08:04:04.583Z,4.60
2018-12-29T08:06:34.177Z,4.60
2018-12-29T08:09:05.079Z,4.60
2018-12-29T08:11:34.950Z,4.70
2018-12-29T08:14:05.196Z,4.60
2018-12-29T08:16:56.974Z,4.70
2018-12-29T08:19:25.416Z,4.60
2018-12-29T08:21:55.118Z,4.70
2018-12-29T08:24:25.351Z,4.70
2018-12-29T08:26:55.530Z,4.70
2018-12-29T08:29:25.641Z,4.80
2018-12-29T08:31:55.751Z,4.90
2018-12-29T08:34:26.436Z,4.90
2018-12-29T08:36:56.635Z,4.90
2018-12-29T08:39:26.686Z,4.80
2018-12-29T08:41:56.672Z,4.70
2018-12-29T08:44:26.792Z,4.70
2018-12-29T08:46:56.809Z,4.70
2018-12-29T08:49:26.908Z,4.70
2018-12-29T08:51:56.713Z,4.80
2018-12-29T08:54:27.003Z,4.70
2018-12-29T08:56:56.816Z,4.70
2018-12-29T08:59:26.697Z,4.80
2018-12-29T09:01:56.789Z,5.00
2018-12-29T09:04:26.938Z,5.00
2018-12-29T09:06:56.790Z,5.00
2018-12-29T09:09:26.791Z,5.00
2018-12-29T09:11:57.051Z,5.10
2018-12-29T09:14:26.616Z,5.00
2018-12-29T09:16:56.446Z,4.90
2018-12-29T09:19:27.389Z,4.90
2018-12-29T09:21:57.746Z,5.00
2018-12-29T09:24:27.625Z,5.00
2018-12-29T09:26:57.513Z,5.20
2018-12-29T09:29:28.115Z,5.10
2018-12-29T09:31:57.875Z,5.10
2018-12-29T09:34:27.847Z,5.10
2018-12-29T09:36:57.579Z,5.10
2018-12-29T09:39:27.495Z,5.10
2018-12-29T09:41:57.394Z,5.20
2018-12-29T09:44:27.745Z,5.20
2018-12-29T09:46:57.550Z,5.20
2018-12-29T09:49:27.299Z,5.20
2018-12-29T09:52:15.753Z,5.20
2018-12-29T09:54:45.787Z,5.20
2018-12-29T09:57:15.737Z,5.30
2018-12-29T09:59:45.749Z,5.20
2018-12-29T10:02:15.502Z,5.30
2018-12-29T10:04:45.392Z,5.40
2018-12-29T10:07:15.156Z,5.30
2018-12-29T10:09:44.839Z,5.30
2018-12-29T10:12:14.540Z,5.30
2018-12-29T10:14:44.392Z,5.40
2018-12-29T10:17:13.998Z,5.40
2018-12-29T10:19:43.848Z,5.50
2018-12-29T10:22:13.430Z,5.50
2018-12-29T10:24:43.019Z,5.50
2018-12-29T10:27:12.654Z,5.40
2018-12-29T10:29:42.335Z,5.40
2018-12-29T10:32:12.261Z,5.50
2018-12-29T10:34:41.749Z,5.60
2018-12-29T10:37:11.362Z,5.60
2018-12-29T10:39:40.869Z,5.70
2018-12-29T10:42:10.518Z,5.70
2018-12-29T10:44:40.485Z,5.70
2018-12-29T10:47:10.220Z,5.80
2018-12-29T10:49:40.622Z,5.80
2018-12-29T10:52:10.220Z,5.90
2018-12-29T10:54:40.151Z,5.80
2018-12-29T10:57:09.979Z,5.80
2018-12-29T10:59:39.987Z,5.80
2018-12-29T11:02:16.507Z,5.90
2018-12-29T11:04:46.338Z,5.90
2018-12-29T11:07:15.871Z,5.90
2018-12-29T11:09:45.989Z,5.80
2018-12-29T11:12:15.875Z,5.90
2018-12-29T11:14:45.739Z,5.90
2018-12-29T11:17:15.803Z,5.90
2018-12-29T11:19:45.617Z,6.00
2018-12-29T11:22:15.760Z,6.00
2018-12-29T11:24:46.254Z,6.10
2018-12-29T11:27:16.294Z,6.10
2018-12-29T11:29:46.085Z,6.10
2018-12-29T11:32:16.110Z,6.10
2018-12-29T11:34:46.347Z,6.10
2018-12-29T11:37:16.540Z,6.20
2018-12-29T11:39:46.589Z,6.20
2018-12-29T11:42:16.270Z,6.30
2018-12-29T11:44:45.866Z,6.30
2018-12-29T11:47:15.740Z,6.20
2018-12-29T11:49:45.808Z,6.30
2018-12-29T11:52:15.737Z,6.30
2018-12-29T11:54:45.519Z,6.20
2018-12-29T11:57:15.620Z,6.10
2018-12-29T11:59:45.396Z,6.20
2018-12-29T12:02:15.029Z,6.30
2018-12-29T12:04:45.067Z,6.30
2018-12-29T12:07:14.659Z,6.30
2018-12-29T12:09:44.833Z,6.30
2018-12-29T12:12:14.499Z,6.30
2018-12-29T12:14:44.180Z,6.20
2018-12-29T12:17:14.346Z,6.20
2018-12-29T12:19:44.714Z,6.30
2018-12-29T12:22:14.897Z,6.40
2018-12-29T12:24:44.870Z,6.40
2018-12-29T12:27:14.781Z,6.50
2018-12-29T12:29:45.266Z,6.60
2018-12-29T12:32:15.273Z,6.70
2018-12-29T12:34:45.431Z,6.60
2018-12-29T12:37:15.622Z,6.60
2018-12-29T12:39:45.757Z,6.70
2018-12-29T12:42:15.613Z,6.70
2018-12-29T12:44:45.496Z,6.70
2018-12-29T12:47:15.496Z,6.90
2018-12-29T12:49:45.249Z,6.90
2018-12-29T12:52:14.853Z,6.90
2018-12-29T12:54:44.367Z,6.80
2018-12-29T12:57:14.779Z,6.90
2018-12-29T12:59:44.808Z,6.90
2018-12-29T13:02:14.683Z,6.80
2018-12-29T13:04:44.683Z,6.80
2018-12-29T13:07:14.669Z,6.80
2018-12-29T13:09:46.511Z,6.80
2018-12-29T13:12:16.336Z,6.90
2018-12-29T13:14:46.129Z,6.90
2018-12-29T13:17:16.345Z,6.90
2018-12-29T13:19:46.694Z,6.90
2018-12-29T13:22:16.705Z,6.80
2018-12-29T13:24:46.710Z,6.90
2018-12-29T13:27:16.474Z,6.90
2018-12-29T13:29:46.449Z,6.90
2018-12-29T13:32:16.331Z,6.80
2018-12-29T13:34:46.579Z,6.90
2018-12-29T13:37:16.258Z,6.90
2018-12-29T13:39:46.063Z,6.80
2018-12-29T13:42:15.516Z,6.80
2018-12-29T13:44:45.612Z,6.80
2018-12-29T13:47:15.730Z,6.80
2018-12-29T13:49:45.621Z,6.80
2018-12-29T13:52:15.494Z,6.70
2018-12-29T13:54:45.619Z,6.80
2018-12-29T13:57:15.637Z,6.70
2018-12-29T13:59:46.013Z,6.70
2018-12-29T14:02:15.971Z,6.70
2018-12-29T14:04:45.970Z,6.60
2018-12-29T14:07:15.998Z,6.70
2018-12-29T14:09:46.088Z,6.70
2018-12-29T14:12:16.101Z,6.70
2018-12-29T14:14:46.222Z,6.70
2018-12-29T14:17:16.095Z,6.60
2018-12-29T14:19:45.909Z,6.60
2018-12-29T14:22:16.567Z,6.50
2018-12-29T14:24:46.569Z,6.60
2018-12-29T14:27:16.157Z,6.50
2018-12-29T14:29:46.249Z,6.50
2018-12-29T14:32:16.445Z,6.50
2018-12-29T14:34:46.571Z,6.40
2018-12-29T14:37:16.406Z,6.40
2018-12-29T14:39:46.250Z,6.40
2018-12-29T14:42:16.448Z,6.40
2018-12-29T14:44:46.783Z,6.40
2018-12-29T14:47:16.614Z,6.40
2018-12-29T14:49:46.503Z,6.40
2018-12-29T14:52:16.692Z,6.40
2018-12-29T14:54:46.821Z,6.50
2018-12-29T14:57:17.099Z,6.40
2018-12-29T14:59:47.319Z,6.50
2018-12-29T15:02:17.438Z,6.40
2018-12-29T15:04:47.456Z,6.50
2018-12-29T15:07:17.661Z,6.50
2018-12-29T15:09:47.766Z,6.50
2018-12-29T15:12:17.405Z,6.40
2018-12-29T15:14:47.169Z,6.50
2018-12-29T15:17:17.074Z,6.50
2018-12-29T15:19:46.683Z,6.50
2018-12-29T15:22:16.618Z,6.50
2018-12-29T15:24:47.042Z,6.50
2018-12-29T15:27:16.979Z,6.50
2018-12-29T15:29:46.682Z,6.40
2018-12-29T15:32:16.682Z,6.40
2018-12-29T15:34:46.565Z,6.40
2018-12-29T15:37:16.447Z,6.50
2018-12-29T15:39:46.190Z,6.40
2018-12-29T15:42:16.154Z,6.40
2018-12-29T15:44:46.015Z,6.40
2018-12-29T15:47:15.734Z,6.40
2018-12-29T15:49:45.942Z,6.50
2018-12-29T15:52:15.961Z,6.40
2018-12-29T15:54:46.180Z,6.50
2018-12-29T15:57:15.719Z,6.40
2018-12-29T15:59:45.961Z,6.40
2018-12-29T16:02:15.814Z,6.50
2018-12-29T16:04:45.483Z,6.40
2018-12-29T16:07:14.884Z,6.50
2018-12-29T16:09:44.644Z,6.40
2018-12-29T16:12:15.004Z,6.40
2018-12-29T16:14:45.841Z,6.30
2018-12-29T16:17:15.921Z,6.40
2018-12-29T16:19:45.962Z,6.40
2018-12-29T16:22:15.844Z,6.40
2018-12-29T16:24:45.554Z,6.30
2018-12-29T16:27:15.719Z,6.30
2018-12-29T16:29:45.485Z,6.30
2018-12-29T16:32:15.361Z,6.30
2018-12-29T16:34:45.597Z,6.40
2018-12-29T16:37:15.481Z,6.30
2018-12-29T16:39:45.613Z,6.40
2018-12-29T16:42:15.570Z,6.30
2018-12-29T16:44:45.359Z,6.40
2018-12-29T16:47:15.125Z,6.40
2018-12-29T16:49:45.239Z,6.40
2018-12-29T16:52:15.613Z,6.40
2018-12-29T16:54:45.479Z,6.40
2018-12-29T16:57:15.238Z,6.50
2018-12-29T16:59:44.880Z,6.40
2018-12-29T17:02:15.240Z,6.50
2018-12-29T17:04:45.248Z,6.50
2018-12-29T17:07:14.989Z,6.50
2018-12-29T17:09:44.878Z,6.50
2018-12-29T17:12:14.768Z,6.50
2018-12-29T17:14:44.334Z,6.60
2018-12-29T17:17:14.156Z,6.50
2018-12-29T17:19:43.945Z,6.60
2018-12-29T17:22:13.751Z,6.60
2018-12-29T17:24:43.560Z,6.60
2018-12-29T17:27:13.783Z,6.60
2018-12-29T17:29:43.500Z,6.50
2018-12-29T17:32:13.557Z,6.50
2018-12-29T17:34:43.715Z,3.70
2018-12-29T17:37:13.689Z,6.70
2018-12-29T17:39:44.038Z,6.60
2018-12-29T17:42:13.915Z,6.70
2018-12-29T17:44:43.376Z,6.70
2018-12-29T17:47:13.560Z,6.80
2018-12-29T17:49:43.254Z,6.80
2018-12-29T17:52:13.072Z,6.70
2018-12-29T17:54:42.959Z,6.80
2018-12-29T17:57:12.595Z,6.80
2018-12-29T17:59:42.478Z,6.80
2018-12-29T18:02:12.179Z,6.80
2018-12-29T18:04:42.122Z,6.90
2018-12-29T18:07:11.976Z,6.90
2018-12-29T18:09:41.761Z,6.90
2018-12-29T18:12:11.871Z,6.90
2018-12-29T18:14:42.081Z,6.90
2018-12-29T18:17:11.936Z,7.00
2018-12-29T18:19:41.874Z,7.00
2018-12-29T18:22:11.664Z,7.10
2018-12-29T18:24:41.588Z,7.10
2018-12-29T18:27:11.180Z,7.20
2018-12-29T18:29:41.036Z,7.20
2018-12-29T18:32:11.040Z,7.20
2018-12-29T18:34:41.042Z,7.20
2018-12-29T18:37:11.343Z,7.20
2018-12-29T18:39:41.061Z,7.20
2018-12-29T18:42:10.668Z,7.30
2018-12-29T18:44:40.262Z,7.30
2018-12-29T18:47:10.074Z,7.30
2018-12-29T18:49:40.088Z,7.30
2018-12-29T18:52:10.567Z,7.40
2018-12-29T18:54:40.527Z,7.40
2018-12-29T18:57:10.667Z,7.50
2018-12-29T18:59:40.558Z,7.50
2018-12-29T19:02:10.272Z,7.60
2018-12-29T19:04:40.311Z,7.60
2018-12-29T19:07:10.301Z,7.60
2018-12-29T19:09:40.310Z,7.60
2018-12-29T19:12:11.374Z,7.60
2018-12-29T19:14:41.516Z,7.70
2018-12-29T19:17:11.635Z,7.70
2018-12-29T19:19:46.220Z,7.80
2018-12-29T19:22:13.544Z,7.80
2018-12-29T19:24:42.998Z,7.80
2018-12-29T19:27:12.960Z,7.90
2018-12-29T19:29:43.316Z,7.90
2018-12-29T19:32:13.308Z,8.00
2018-12-29T19:34:43.356Z,8.00
2018-12-29T19:37:13.665Z,8.10
2018-12-29T19:39:43.663Z,8.10
2018-12-29T19:42:13.910Z,8.10
2018-12-29T19:44:43.548Z,8.20
2018-12-29T19:47:14.857Z,8.20
2018-12-29T19:49:44.504Z,8.30
2018-12-29T19:52:14.635Z,8.30
2018-12-29T19:54:44.625Z,8.30
2018-12-29T19:57:14.990Z,8.30
2018-12-29T19:59:45.440Z,8.20
2018-12-29T20:02:15.598Z,8.30
2018-12-29T20:04:45.960Z,8.30
2018-12-29T20:07:16.569Z,8.30
2018-12-29T20:09:47.027Z,8.40
2018-12-29T20:12:16.780Z,8.50
2018-12-29T20:14:46.426Z,8.40
2018-12-29T20:17:16.603Z,8.50
2018-12-29T20:19:46.427Z,8.50
2018-12-29T20:22:16.305Z,8.50
2018-12-29T20:24:46.416Z,8.60
2018-12-29T20:27:16.064Z,8.50
2018-12-29T20:29:45.947Z,8.50
2018-12-29T20:32:16.180Z,8.50
2018-12-29T20:34:46.063Z,8.60
2018-12-29T20:37:15.952Z,8.50
2018-12-29T20:39:46.076Z,8.60
2018-12-29T20:42:16.060Z,8.50
2018-12-29T20:44:46.067Z,8.60
2018-12-29T20:47:15.944Z,8.50
2018-12-29T20:49:45.941Z,8.50
2018-12-29T20:52:15.819Z,8.50
2018-12-29T20:54:45.981Z,8.50
2018-12-29T20:57:16.059Z,8.40
2018-12-29T20:59:51.938Z,8.40
2018-12-29T21:02:21.584Z,8.50
2018-12-29T21:04:51.458Z,8.50
2018-12-29T21:07:21.489Z,8.40
2018-12-29T21:09:51.456Z,8.40
2018-12-29T21:12:21.340Z,8.30
2018-12-29T21:14:51.582Z,8.20
2018-12-29T21:17:21.469Z,8.20
2018-12-29T21:19:51.669Z,8.20
2018-12-29T21:22:21.678Z,8.20
2018-12-29T21:24:51.587Z,8.20
2018-12-29T21:27:21.340Z,8.20
2018-12-29T21:29:51.461Z,8.20
2018-12-29T21:32:21.220Z,8.20
2018-12-29T21:34:50.935Z,8.10
2018-12-29T21:37:20.623Z,8.10
2018-12-29T21:39:50.296Z,8.10
2018-12-29T21:42:20.271Z,8.10
2018-12-29T21:44:49.600Z,8.10
2018-12-29T21:47:19.373Z,8.10
2018-12-29T21:49:49.053Z,8.00
2018-12-29T21:52:18.938Z,8.10
2018-12-29T21:54:48.502Z,8.10
2018-12-29T21:57:18.459Z,8.10
2018-12-29T21:59:49.302Z,8.00
2018-12-29T22:02:19.191Z,8.10
2018-12-29T22:04:49.173Z,8.00
2018-12-29T22:07:19.174Z,8.00
2018-12-29T22:09:49.059Z,8.00
2018-12-29T22:12:18.813Z,8.00
2018-12-29T22:14:48.148Z,8.00
2018-12-29T22:17:18.026Z,8.10
2018-12-29T22:19:48.217Z,8.00
2018-12-29T22:22:18.159Z,8.00
2018-12-29T22:24:47.779Z,8.00
2018-12-29T22:27:17.611Z,8.00
2018-12-29T22:29:46.975Z,8.00
2018-12-29T22:32:17.195Z,8.00
2018-12-29T22:34:46.771Z,8.00
2018-12-29T22:37:16.821Z,8.00
2018-12-29T22:39:46.411Z,8.00
2018-12-29T22:42:15.925Z,8.00
2018-12-29T22:44:45.821Z,8.10
2018-12-29T22:47:15.444Z,8.00
2018-12-29T22:49:45.211Z,8.00
2018-12-29T22:52:14.965Z,7.90
2018-12-29T22:54:44.893Z,8.00
2018-12-29T22:57:14.854Z,7.90
2018-12-29T22:59:44.708Z,8.00
2018-12-29T23:02:14.311Z,8.00
2018-12-29T23:04:44.369Z,8.00
2018-12-29T23:07:14.346Z,8.00
2018-12-29T23:09:44.258Z,8.00
2018-12-29T23:12:13.860Z,8.00
2018-12-29T23:14:43.464Z,7.90
2018-12-29T23:17:13.173Z,8.00
2018-12-29T23:19:42.882Z,8.10
2018-12-29T23:22:12.570Z,8.10
2018-12-29T23:24:42.195Z,8.10
2018-12-29T23:27:11.798Z,8.10
2018-12-29T23:29:41.743Z,8.10
2018-12-29T23:32:11.730Z,8.00
2018-12-29T23:34:41.849Z,8.10
2018-12-29T23:37:11.456Z,8.10
2018-12-29T23:39:41.254Z,8.00
2018-12-29T23:42:11.012Z,8.10
2018-12-29T23:44:40.898Z,8.10
2018-12-29T23:47:10.287Z,8.10
2018-12-29T23:49:39.930Z,8.10
2018-12-29T23:52:10.216Z,8.10
2018-12-29T23:54:40.167Z,8.10
2018-12-29T23:57:10.039Z,8.10
2018-12-29T23:59:39.749Z,8.10
